Time;durP1;ratioP1;P1;durP2;ratioP2;P2;SDS_P1;SDS_P2;PMS_P1;PMS_P2;Temp;Humidity;BMP_temperature;BMP_pressure;BME280_temperature;BME280_humidity;BME280_pressure;Samples;Min_cycle;Max_cycle;Signal;HPM_P1;HPM_P2
2022/06/10 00:01:08;;;;;;;5.95;1.55;;;13.20;99.90;;;;;;5071431;28;20060;-47
2022/06/10 00:03:35;;;;;;;7.70;1.98;;;13.30;99.90;;;;;;5084046;28;20842;-47
2022/06/10 00:06:04;;;;;;;4.93;1.45;;;13.30;99.90;;;;;;5083423;28;20093;-45
2022/06/10 00:08:34;;;;;;;8.45;2.28;;;13.30;99.90;;;;;;5076930;28;20043;-46
2022/06/10 00:11:01;;;;;;;6.78;1.40;;;13.30;99.90;;;;;;5082000;28;20043;-45
2022/06/10 00:13:32;;;;;;;7.57;1.77;;;13.30;99.90;;;;;;5087553;28;20032;-45
2022/06/10 00:15:58;;;;;;;5.30;1.60;;;13.30;99.90;;;;;;5085585;28;20079;-47
2022/06/10 00:18:26;;;;;;;8.68;2.42;;;13.20;99.90;;;;;;5089058;28;20449;-45
2022/06/10 00:20:52;;;;;;;7.50;2.28;;;13.30;99.90;;;;;;5090360;28;20136;-46
2022/06/10 00:23:18;;;;;;;4.18;2.03;;;13.30;99.90;;;;;;5088852;28;20033;-46
2022/06/10 00:25:45;;;;;;;7.97;1.52;;;13.20;99.90;;;;;;5077750;28;20044;-46
2022/06/10 00:28:12;;;;;;;6.63;1.77;;;13.20;99.90;;;;;;5083217;28;20054;-46
2022/06/10 00:30:38;;;;;;;6.13;2.00;;;13.20;99.90;;;;;;5083939;28;20036;-47
2022/06/10 00:33:04;;;;;;;6.28;1.38;;;13.20;99.90;;;;;;5087429;28;20512;-46
2022/06/10 00:35:30;;;;;;;5.50;1.98;;;13.20;99.90;;;;;;5081591;28;20465;-47
2022/06/10 00:37:56;;;;;;;7.43;1.63;;;13.20;99.90;;;;;;5071566;28;20039;-46
2022/06/10 00:40:28;;;;;;;10.70;2.10;;;13.20;99.90;;;;;;5086750;28;20147;-45
2022/06/10 00:42:56;;;;;;;7.30;1.17;;;13.20;99.90;;;;;;5073080;28;20086;-46
2022/06/10 00:45:55;;;;;;;6.25;1.48;;;13.20;99.90;;;;;;5076016;28;20075;-45
2022/06/10 00:48:26;;;;;;;12.38;1.70;;;13.20;99.90;;;;;;5083500;28;20036;-45
2022/06/10 00:50:53;;;;;;;4.78;1.13;;;13.20;99.90;;;;;;5085190;28;20047;-46
2022/06/10 00:53:23;;;;;;;8.38;1.73;;;13.20;99.90;;;;;;5085908;28;20032;-45
2022/06/10 00:55:51;;;;;;;9.95;2.75;;;13.10;99.90;;;;;;5089961;28;20036;-46
2022/06/10 00:58:40;;;;;;;7.72;1.63;;;13.10;99.90;;;;;;5081215;28;20497;-46
2022/06/10 01:01:07;;;;;;;10.75;1.77;;;13.10;99.90;;;;;;5080061;28;20035;-46
2022/06/10 01:03:33;;;;;;;;;;;13.00;99.90;;;;;;5090563;28;20040;-45
2022/06/10 01:05:59;;;;;;;8.98;2.13;;;13.00;99.90;;;;;;5074726;28;19962;-45
2022/06/10 01:08:24;;;;;;;8.05;1.90;;;12.90;99.90;;;;;;5086817;28;20129;-46
2022/06/10 01:11:33;;;;;;;6.88;2.28;;;12.90;99.90;;;;;;5084776;28;20037;-46
2022/06/10 01:14:16;;;;;;;10.95;2.55;;;12.80;99.90;;;;;;5077311;28;20044;-46
2022/06/10 01:16:49;;;;;;;9.73;1.90;;;12.80;99.90;;;;;;5082950;28;20468;-46
2022/06/10 01:19:56;;;;;;;8.55;2.10;;;12.80;99.90;;;;;;5073959;28;20047;-46
2022/06/10 01:22:43;;;;;;;8.43;2.42;;;12.80;99.90;;;;;;5079850;28;20073;-46
2022/06/10 01:25:28;;;;;;;9.77;1.98;;;12.90;99.90;;;;;;5091853;28;20047;-46
2022/06/10 01:28:05;;;;;;;7.22;2.53;;;12.80;99.90;;;;;;5072159;28;20110;-46
2022/06/10 01:30:58;;;;;;;6.18;2.05;;;12.90;99.90;;;;;;5077883;28;20044;-45
2022/06/10 01:33:49;;;;;;;8.18;2.67;;;12.90;99.90;;;;;;5073146;28;20033;-45
2022/06/10 01:36:57;;;;;;;7.93;2.78;;;12.90;99.90;;;;;;5071325;28;20036;-46
2022/06/10 01:39:29;;;;;;;11.93;2.70;;;12.90;99.90;;;;;;5037512;28;20041;-45
2022/06/10 01:42:09;;;;;;;13.20;2.47;;;12.90;99.90;;;;;;5027789;28;20045;-46
2022/06/10 01:45:06;;;;;;;5.70;2.65;;;12.90;99.90;;;;;;5029201;28;20457;-46
2022/06/10 01:47:52;;;;;;;11.20;2.95;;;12.90;99.90;;;;;;5042554;28;20497;-46
2022/06/10 01:50:30;;;;;;;8.32;2.65;;;12.90;99.90;;;;;;5034858;28;20049;-45
2022/06/10 01:53:05;;;;;;;10.70;3.28;;;12.90;99.90;;;;;;5041600;28;20041;-47
2022/06/10 01:55:57;;;;;;;8.73;2.80;;;12.90;99.90;;;;;;5033062;28;20044;-46
2022/06/10 01:58:33;;;;;;;9.02;3.10;;;12.90;99.90;;;;;;5044616;28;20049;-46
2022/06/10 02:01:05;;;;;;;12.40;3.30;;;12.90;99.90;;;;;;5045555;28;20057;-47
2022/06/10 02:03:36;;;;;;;8.85;2.83;;;13.00;99.90;;;;;;5046374;28;20512;-45
2022/06/10 02:06:10;;;;;;;7.40;2.50;;;13.00;99.90;;;;;;5038920;28;20055;-45
2022/06/10 02:08:52;;;;;;;11.05;3.00;;;12.90;99.90;;;;;;5045865;28;20041;-47
2022/06/10 02:11:22;;;;;;;11.02;3.10;;;13.00;99.90;;;;;;5035602;28;20191;-45
2022/06/10 02:14:12;;;;;;;8.65;2.85;;;12.90;99.90;;;;;;5073268;28;20507;-46
2022/06/10 02:16:42;;;;;;;6.10;2.38;;;12.90;99.90;;;;;;5077160;28;20370;-47
2022/06/10 02:19:27;;;;;;;8.45;3.60;;;13.00;99.90;;;;;;5084757;28;20039;-47
2022/06/10 02:21:57;;;;;;;12.07;3.22;;;13.00;99.90;;;;;;5073089;28;20531;-46
2022/06/10 02:24:34;;;;;;;13.50;3.55;;;13.00;99.90;;;;;;5081425;28;20446;-45
2022/06/10 02:27:05;;;;;;;5.45;2.60;;;12.90;99.90;;;;;;5088879;28;20040;-46
2022/06/10 02:29:40;;;;;;;6.85;2.75;;;12.90;99.90;;;;;;5090225;28;20048;-45
2022/06/10 02:32:06;;;;;;;6.93;2.58;;;12.90;99.90;;;;;;5081180;28;20031;-46
2022/06/10 02:34:32;;;;;;;7.03;2.67;;;12.90;99.90;;;;;;5088987;28;20036;-45
2022/06/10 02:37:06;;;;;;;7.30;2.85;;;12.90;99.90;;;;;;5073345;28;20044;-47
2022/06/10 02:39:46;;;;;;;7.53;3.20;;;12.80;99.90;;;;;;5069817;28;20049;-45
2022/06/10 02:42:35;;;;;;;4.10;2.00;;;12.80;99.90;;;;;;5072078;28;20090;-46
2022/06/10 02:45:16;;;;;;;8.57;3.47;;;12.80;99.90;;;;;;5069405;28;20047;-45
2022/06/10 02:47:57;;;;;;;10.90;2.33;;;12.80;99.90;;;;;;5085033;28;20043;-46
2022/06/10 02:50:23;;;;;;;5.55;2.55;;;12.80;99.90;;;;;;5074648;28;20050;-45
2022/06/10 02:52:49;;;;;;;6.25;3.25;;;12.80;99.90;;;;;;5074618;28;20425;-46
2022/06/10 02:55:23;;;;;;;7.55;3.28;;;12.70;99.90;;;;;;5090324;28;20071;-46
2022/06/10 03:04:06;;;;;;;10.32;3.45;;;12.70;99.90;;;;;;5070719;28;20553;-46
2022/06/10 03:06:45;;;;;;;6.47;2.38;;;12.70;99.90;;;;;;5070808;28;20127;-47
2022/06/10 03:09:20;;;;;;;10.32;3.88;;;12.60;99.90;;;;;;5070912;28;20047;-45
2022/06/10 03:12:24;;;;;;;10.38;2.90;;;12.60;99.90;;;;;;5074682;28;20426;-45
2022/06/10 03:15:08;;;;;;;13.48;3.35;;;12.60;99.90;;;;;;5069446;28;20086;-46
2022/06/10 03:17:51;;;;;;;12.00;3.85;;;12.50;99.90;;;;;;5076488;28;20066;-45
2022/06/10 03:20:36;;;;;;;13.25;2.83;;;12.50;99.90;;;;;;5069445;28;20133;-46
2022/06/10 03:23:10;;;;;;;8.68;3.30;;;12.50;99.90;;;;;;5081525;28;20122;-45
2022/06/10 03:25:45;;;;;;;8.57;3.22;;;12.50;99.90;;;;;;5080118;28;20041;-46
2022/06/10 03:28:18;;;;;;;8.82;3.38;;;12.50;99.90;;;;;;5074137;28;20037;-45
2022/06/10 03:31:16;;;;;;;13.85;3.40;;;12.50;99.90;;;;;;5075024;28;20115;-45
2022/06/10 03:33:47;;;;;;;;;;;12.40;99.90;;;;;;5088936;28;20086;-47
2022/06/10 03:36:21;;;;;;;7.80;3.35;;;12.50;99.90;;;;;;5075416;28;19916;-45
2022/06/10 03:38:49;;;;;;;5.43;2.92;;;12.40;99.90;;;;;;5087672;28;20127;-46
2022/06/10 03:41:31;;;;;;;6.45;2.60;;;12.40;99.90;;;;;;5079347;28;20071;-45
2022/06/10 03:44:00;;;;;;;8.95;3.85;;;12.40;99.90;;;;;;5072441;28;20047;-44
2022/06/10 03:46:30;;;;;;;14.02;3.92;;;12.40;99.90;;;;;;5091382;28;20040;-46
2022/06/10 03:48:57;;;;;;;11.02;3.28;;;12.40;99.90;;;;;;5079619;28;20040;-45
2022/06/10 03:51:22;;;;;;;8.32;3.10;;;12.40;99.90;;;;;;5088339;28;20044;-46
2022/06/10 03:53:48;;;;;;;12.15;3.22;;;12.40;99.90;;;;;;5078858;28;20111;-45
2022/06/10 03:56:23;;;;;;;4.85;2.78;;;12.40;99.90;;;;;;5077322;28;20378;-45
2022/06/10 03:58:49;;;;;;;11.45;3.50;;;12.40;99.90;;;;;;5073174;28;20032;-46
2022/06/10 04:01:15;;;;;;;13.80;3.45;;;12.40;99.90;;;;;;5085699;28;20042;-46
2022/06/10 04:03:40;;;;;;;11.90;2.92;;;12.40;99.90;;;;;;5091443;28;20047;-46
2022/06/10 04:06:06;;;;;;;11.53;3.60;;;12.40;99.90;;;;;;5084677;28;20511;-46
2022/06/10 04:08:32;;;;;;;11.98;3.78;;;12.40;99.90;;;;;;5093037;28;20274;-46
2022/06/10 04:10:58;;;;;;;9.20;3.75;;;12.40;99.90;;;;;;5081419;28;20036;-46
2022/06/10 04:13:24;;;;;;;12.73;3.83;;;12.40;99.90;;;;;;5072804;28;20047;-45
2022/06/10 04:15:49;;;;;;;11.55;3.67;;;12.50;99.90;;;;;;5081625;28;20040;-46
2022/06/10 04:18:15;;;;;;;8.32;4.07;;;12.50;99.90;;;;;;5073991;28;20564;-46
2022/06/10 04:20:42;;;;;;;9.88;4.03;;;12.50;99.90;;;;;;5080553;28;20035;-45
2022/06/10 04:23:09;;;;;;;10.02;4.25;;;12.50;99.90;;;;;;5081585;28;20505;-46
2022/06/10 04:25:36;;;;;;;8.95;3.33;;;12.50;99.90;;;;;;5082911;28;20074;-46
2022/06/10 04:28:03;;;;;;;11.25;4.75;;;12.50;99.90;;;;;;5072074;28;20398;-46
2022/06/10 04:30:32;;;;;;;11.30;4.15;;;12.50;99.90;;;;;;5076076;28;20481;-46
2022/06/10 04:32:59;;;;;;;10.60;4.45;;;12.60;99.90;;;;;;5089606;28;20074;-45
2022/06/10 04:35:26;;;;;;;11.57;4.65;;;12.60;99.90;;;;;;5087598;28;20147;-46
2022/06/10 04:37:54;;;;;;;10.68;4.13;;;12.60;99.90;;;;;;5077192;28;20401;-45
2022/06/10 04:40:27;;;;;;;14.00;4.03;;;12.70;99.90;;;;;;5082296;28;20054;-46
2022/06/10 04:42:53;;;;;;;9.48;4.38;;;12.70;99.90;;;;;;5089683;28;20043;-46
2022/06/10 04:45:22;;;;;;;8.77;5.18;;;12.70;99.90;;;;;;5082497;28;20070;-46
2022/06/10 04:47:48;;;;;;;11.77;5.22;;;12.80;99.90;;;;;;5084470;28;20072;-46
2022/06/10 04:50:17;;;;;;;10.15;5.13;;;12.80;99.90;;;;;;5081751;28;20097;-45
2022/06/10 04:52:42;;;;;;;12.88;4.00;;;12.90;99.90;;;;;;5090818;28;20036;-46
2022/06/10 04:55:09;;;;;;;12.80;4.93;;;12.90;99.90;;;;;;5084049;28;20051;-47
2022/06/10 04:57:36;;;;;;;18.55;5.78;;;13.00;99.90;;;;;;5072249;28;20278;-47
2022/06/10 05:00:04;;;;;;;12.07;5.00;;;13.10;99.90;;;;;;5076934;28;20042;-47
2022/06/10 05:02:30;;;;;;;16.58;5.57;;;13.20;99.90;;;;;;5090792;28;20500;-44
2022/06/10 05:04:56;;;;;;;9.18;4.57;;;13.20;99.90;;;;;;5086353;28;20033;-46
2022/06/10 05:07:21;;;;;;;13.52;5.18;;;13.30;99.90;;;;;;5070619;28;20098;-46
2022/06/10 05:09:47;;;;;;;10.52;5.50;;;13.40;99.90;;;;;;5073547;28;20045;-46
2022/06/10 05:12:12;;;;;;;14.53;5.27;;;13.50;99.90;;;;;;5091632;28;20463;-46
2022/06/10 05:14:38;;;;;;;13.60;7.07;;;13.60;99.90;;;;;;5089753;28;20763;-47
2022/06/10 05:17:04;;;;;;;13.83;5.27;;;13.70;99.90;;;;;;5075181;28;20282;-47
2022/06/10 05:19:30;;;;;;;;;;;13.80;99.90;;;;;;5074955;28;20033;-48
2022/06/10 05:21:57;;;;;;;11.65;5.85;;;13.90;99.90;;;;;;5085941;28;19938;-46
2022/06/10 05:24:22;;;;;;;15.48;4.78;;;14.00;99.90;;;;;;5085456;28;20119;-46
2022/06/10 05:26:48;;;;;;;14.63;5.65;;;14.10;99.90;;;;;;5086087;28;20470;-46
2022/06/10 05:29:14;;;;;;;11.10;5.15;;;14.20;99.90;;;;;;5084180;28;20037;-47
2022/06/10 05:31:40;;;;;;;9.30;5.00;;;14.30;99.90;;;;;;5085931;28;20028;-46
2022/06/10 05:36:49;;;;;;;12.18;5.55;;;14.40;99.90;;;;;;5075552;28;20287;-47
2022/06/10 05:39:15;;;;;;;11.88;5.05;;;14.50;99.90;;;;;;5074737;28;20037;-46
2022/06/10 05:44:26;;;;;;;16.00;5.05;;;14.50;99.90;;;;;;5078264;28;20035;-46
2022/06/10 05:46:53;;;;;;;12.73;4.95;;;14.50;99.90;;;;;;5075540;28;20512;-46
2022/06/10 05:49:19;;;;;;;10.82;4.82;;;14.50;99.90;;;;;;5078865;28;20135;-46
2022/06/10 05:51:45;;;;;;;15.32;4.82;;;14.50;99.90;;;;;;5082384;28;20576;-46
2022/06/10 05:54:11;;;;;;;15.80;4.70;;;14.60;99.90;;;;;;5089953;28;20032;-46
2022/06/10 05:56:39;;;;;;;9.15;4.70;;;14.60;99.90;;;;;;5078833;28;20040;-46
2022/06/10 05:59:05;;;;;;;11.15;4.85;;;14.60;99.90;;;;;;5077893;28;20040;-47
2022/06/10 06:01:30;;;;;;;15.50;5.55;;;14.60;99.90;;;;;;5079238;28;20405;-46
2022/06/10 06:03:56;;;;;;;12.40;5.85;;;14.60;99.90;;;;;;5085933;28;20040;-47
2022/06/10 06:06:22;;;;;;;14.52;5.13;;;14.60;99.90;;;;;;5091188;28;20036;-46
2022/06/10 06:08:48;;;;;;;15.70;5.43;;;14.60;99.90;;;;;;5086996;28;20040;-47
2022/06/10 06:11:16;;;;;;;13.60;4.72;;;14.60;99.90;;;;;;5090725;28;20043;-47
2022/06/10 06:13:42;;;;;;;11.18;5.53;;;14.70;99.90;;;;;;5088194;28;20036;-45
2022/06/10 06:16:12;;;;;;;13.88;4.95;;;14.70;99.90;;;;;;5084980;28;20071;-46
2022/06/10 06:18:37;;;;;;;8.35;5.68;;;14.70;99.90;;;;;;5088543;28;20570;-46
2022/06/10 06:21:05;;;;;;;11.60;5.32;;;14.70;99.90;;;;;;5074528;28;20036;-47
2022/06/10 06:23:30;;;;;;;9.75;5.03;;;14.80;99.90;;;;;;5070454;28;20048;-45
2022/06/10 06:25:56;;;;;;;13.73;5.43;;;14.80;99.90;;;;;;5071422;28;20036;-46
2022/06/10 06:28:22;;;;;;;16.40;4.45;;;14.80;99.90;;;;;;5070616;28;20044;-47
2022/06/10 06:30:47;;;;;;;12.25;4.28;;;14.90;99.90;;;;;;5085886;28;20085;-46
2022/06/10 06:33:13;;;;;;;21.02;4.15;;;14.90;99.90;;;;;;5087825;28;20028;-48
2022/06/10 06:35:39;;;;;;;10.32;3.60;;;15.00;99.90;;;;;;5077558;28;20463;-47
2022/06/10 06:38:06;;;;;;;9.52;3.20;;;15.00;99.90;;;;;;5086344;28;20054;-46
2022/06/10 06:40:33;;;;;;;10.18;4.35;;;14.90;99.90;;;;;;5090544;28;20386;-46
2022/06/10 06:42:58;;;;;;;11.00;4.53;;;15.00;99.90;;;;;;5087132;28;20047;-46
2022/06/10 06:45:24;;;;;;;7.78;3.25;;;15.00;99.90;;;;;;5089464;28;20040;-47
2022/06/10 06:47:51;;;;;;;;;;;14.90;99.90;;;;;;5058325;28;20051;-46
2022/06/10 06:50:23;;;;;;;11.98;3.88;;;15.00;99.90;;;;;;5070131;28;19924;-47
2022/06/10 06:52:49;;;;;;;14.10;3.97;;;15.00;99.90;;;;;;5069004;28;20045;-46
2022/06/10 06:55:15;;;;;;;16.30;4.90;;;15.00;99.90;;;;;;5076246;28;20515;-46
2022/06/10 06:57:41;;;;;;;15.13;4.40;;;15.00;99.90;;;;;;5069615;28;20451;-46
2022/06/10 07:00:08;;;;;;;19.67;6.22;;;15.00;99.90;;;;;;5084537;28;20047;-46
2022/06/10 07:02:35;;;;;;;17.15;5.15;;;14.90;99.90;;;;;;5074942;28;20572;-47
2022/06/10 07:05:02;;;;;;;14.70;6.05;;;14.80;99.90;;;;;;5083435;28;20040;-46
2022/06/10 07:07:28;;;;;;;10.85;5.32;;;14.80;99.90;;;;;;5089631;28;20036;-46
2022/06/10 07:09:54;;;;;;;18.45;6.55;;;14.80;99.90;;;;;;5089194;28;20051;-46
2022/06/10 07:12:20;;;;;;;22.52;6.85;;;14.80;99.90;;;;;;5090445;28;20036;-45
2022/06/10 07:14:46;;;;;;;12.63;6.55;;;14.80;99.90;;;;;;5088982;28;20050;-47
2022/06/10 07:17:11;;;;;;;14.77;6.75;;;14.80;99.90;;;;;;5087983;28;20044;-47
2022/06/10 07:19:38;;;;;;;14.52;6.95;;;14.80;99.90;;;;;;5080909;28;20063;-46
2022/06/10 07:22:05;;;;;;;14.52;6.90;;;14.80;99.90;;;;;;5081594;28;20044;-46
2022/06/10 07:24:31;;;;;;;15.93;8.07;;;14.90;99.90;;;;;;5078735;28;20402;-46
2022/06/10 07:27:00;;;;;;;10.43;6.53;;;14.90;99.90;;;;;;5070101;28;20037;-48
2022/06/10 07:29:28;;;;;;;18.63;8.13;;;14.90;99.90;;;;;;5078623;28;20043;-47
2022/06/10 07:31:54;;;;;;;16.55;7.85;;;14.90;99.90;;;;;;5079141;28;20054;-47
2022/06/10 07:34:20;;;;;;;11.85;7.10;;;15.00;99.90;;;;;;5081579;28;20040;-46
2022/06/10 07:36:46;;;;;;;11.68;6.85;;;15.10;99.90;;;;;;5077812;28;20382;-46
2022/06/10 07:39:12;;;;;;;12.38;6.55;;;15.10;99.90;;;;;;5069897;28;20028;-47
2022/06/10 07:44:23;;;;;;;14.02;6.22;;;15.20;99.90;;;;;;5069188;28;20048;-47
2022/06/10 07:46:50;;;;;;;16.30;5.97;;;15.30;99.90;;;;;;5075654;28;20032;-46
2022/06/10 07:49:17;;;;;;;12.52;6.00;;;15.40;99.90;;;;;;5069944;28;20032;-48
2022/06/10 07:51:42;;;;;;;12.25;6.03;;;15.50;99.90;;;;;;5069544;28;20083;-47
2022/06/10 07:54:08;;;;;;;8.27;5.32;;;15.60;99.90;;;;;;5075004;28;20060;-49
2022/06/10 07:56:34;;;;;;;16.70;7.00;;;15.70;99.90;;;;;;5088320;28;20269;-47
2022/06/10 07:59:00;;;;;;;;;;;15.80;99.90;;;;;;5089890;28;20703;-47
2022/06/10 08:01:27;;;;;;;9.27;4.90;;;15.90;99.90;;;;;;5084333;28;20003;-47
2022/06/10 08:03:53;;;;;;;12.05;5.57;;;16.00;99.90;;;;;;5078254;28;20399;-47
2022/06/10 08:06:20;;;;;;;13.73;5.63;;;16.10;99.90;;;;;;5077047;28;20028;-47
2022/06/10 08:08:46;;;;;;;13.18;6.15;;;16.10;99.90;;;;;;5082268;28;20040;-47
2022/06/10 08:11:11;;;;;;;20.15;5.63;;;16.20;99.90;;;;;;5077202;28;20052;-47
2022/06/10 08:13:37;;;;;;;7.45;4.63;;;16.30;99.90;;;;;;5076803;28;20037;-47
2022/06/10 08:16:03;;;;;;;11.10;4.68;;;16.30;99.90;;;;;;5087458;28;20047;-48
2022/06/10 08:18:33;;;;;;;9.23;4.60;;;16.30;99.90;;;;;;5086739;28;20074;-47
2022/06/10 08:23:44;;;;;;;7.30;4.90;;;16.20;99.90;;;;;;5087239;28;20036;-47
2022/06/10 08:26:10;;;;;;;14.95;4.60;;;16.20;99.90;;;;;;5081942;28;20489;-45
2022/06/10 08:28:38;;;;;;;6.53;4.25;;;16.30;99.90;;;;;;5082631;28;20059;-48
2022/06/10 08:31:04;;;;;;;9.02;4.57;;;16.20;99.90;;;;;;5088800;28;20063;-46
2022/06/10 08:33:30;;;;;;;10.32;5.60;;;16.30;99.90;;;;;;5090094;28;20112;-47
2022/06/10 08:35:57;;;;;;;16.00;4.78;;;16.30;99.90;;;;;;5083691;28;20102;-47
2022/06/10 08:38:22;;;;;;;;;;;16.30;99.90;;;;;;5082887;28;20067;-47
2022/06/10 08:40:59;;;;;;;11.75;4.30;;;16.30;99.90;;;;;;5072683;28;20377;-47
2022/06/10 08:43:27;;;;;;;11.13;5.10;;;16.40;99.90;;;;;;5071726;28;20082;-48
2022/06/10 08:46:07;;;;;;;11.95;5.50;;;16.50;99.90;;;;;;5077150;28;20043;-47
2022/06/10 08:49:10;;;;;;;14.13;4.95;;;16.50;99.90;;;;;;5089912;28;20423;-47
2022/06/10 08:51:43;;;;;;;11.93;4.72;;;16.50;99.90;;;;;;5071749;28;20045;-47
2022/06/10 08:54:27;;;;;;;10.68;5.18;;;16.50;99.90;;;;;;5075384;28;20610;-47
2022/06/10 08:56:57;;;;;;;14.75;6.05;;;16.60;99.90;;;;;;5089766;28;20497;-46
2022/06/10 08:59:35;;;;;;;12.35;5.22;;;16.60;99.90;;;;;;5087423;28;20032;-47
2022/06/10 09:02:25;;;;;;;12.13;5.22;;;16.60;99.90;;;;;;5084688;28;20036;-47
2022/06/10 09:05:23;;;;;;;11.48;4.60;;;16.70;99.90;;;;;;5075991;28;20512;-47
2022/06/10 09:08:16;;;;;;;15.18;5.15;;;16.80;99.90;;;;;;5077519;28;20047;-49
2022/06/10 09:10:55;;;;;;;10.40;4.55;;;16.90;99.90;;;;;;5075835;28;20088;-47
2022/06/10 09:13:36;;;;;;;12.27;4.88;;;16.90;99.90;;;;;;5079614;28;20499;-48
2022/06/10 09:16:20;;;;;;;11.00;3.90;;;17.00;99.90;;;;;;5072770;28;20033;-47
2022/06/10 09:19:04;;;;;;;11.88;3.55;;;17.00;99.90;;;;;;5071768;28;20037;-48
2022/06/10 09:21:43;;;;;;;10.70;4.05;;;17.00;99.90;;;;;;5075768;28;20036;-47
2022/06/10 09:24:33;;;;;;;15.13;4.22;;;17.00;99.90;;;;;;5081955;28;20036;-47
2022/06/10 09:27:20;;;;;;;10.75;4.45;;;17.00;99.90;;;;;;5064035;28;20121;-47
2022/06/10 09:29:47;;;;;;;8.70;3.15;;;17.00;99.90;;;;;;5067764;28;20067;-47
2022/06/10 09:32:28;;;;;;;17.15;4.05;;;17.00;99.90;;;;;;5079352;28;20093;-47
2022/06/10 09:35:23;;;;;;;14.73;4.05;;;17.00;99.90;;;;;;5077634;28;20051;-47
2022/06/10 09:38:09;;;;;;;8.07;3.80;;;17.10;99.90;;;;;;5083049;28;20368;-47
2022/06/10 09:40:37;;;;;;;10.13;3.13;;;17.10;99.90;;;;;;5077946;28;20043;-46
2022/06/10 09:43:23;;;;;;;8.57;3.28;;;17.10;99.90;;;;;;5088620;28;20089;-48
2022/06/10 09:46:07;;;;;;;11.03;3.97;;;17.10;99.90;;;;;;5082358;28;20043;-47
2022/06/10 09:48:46;;;;;;;10.63;3.67;;;17.10;99.90;;;;;;5100575;28;20073;-47
2022/06/10 09:51:43;;;;;;;10.93;3.33;;;17.10;99.90;;;;;;5078529;28;20125;-47
2022/06/10 09:54:34;;;;;;;11.23;3.88;;;17.10;99.90;;;;;;5075943;28;20032;-46
2022/06/10 09:57:08;;;;;;;13.50;3.90;;;17.20;99.90;;;;;;5074620;28;20088;-46
2022/06/10 09:59:46;;;;;;;8.70;3.13;;;17.20;99.90;;;;;;5079293;28;20040;-47
2022/06/10 10:02:17;;;;;;;12.90;4.00;;;17.30;99.90;;;;;;5085500;28;20040;-46
2022/06/10 10:04:49;;;;;;;10.75;3.15;;;17.40;99.90;;;;;;5073060;28;20448;-46
2022/06/10 10:07:38;;;;;;;8.45;3.83;;;17.50;99.90;;;;;;5090450;28;20493;-46
2022/06/10 10:10:19;;;;;;;10.40;2.80;;;17.60;99.90;;;;;;5083374;28;20043;-47
2022/06/10 10:13:26;;;;;;;11.98;3.30;;;17.70;99.90;;;;;;5070710;28;20485;-47
2022/06/10 10:16:08;;;;;;;11.55;2.85;;;18.00;99.90;;;;;;5079781;28;20036;-46
2022/06/10 10:18:53;;;;;;;10.00;3.03;;;18.10;99.90;;;;;;5082274;28;20058;-46
2022/06/10 10:21:25;;;;;;;13.63;4.28;;;18.20;99.90;;;;;;5086162;28;20044;-46
2022/06/10 10:23:53;;;;;;;12.25;3.97;;;18.30;99.90;;;;;;5087625;28;20124;-47
2022/06/10 10:26:29;;;;;;;7.70;3.00;;;18.40;99.90;;;;;;5075939;28;20112;-45
2022/06/10 10:29:05;;;;;;;9.05;3.47;;;18.50;99.90;;;;;;5085887;28;20075;-46
2022/06/10 10:31:36;;;;;;;;;;;18.60;99.90;;;;;;5081272;28;20125;-47
2022/06/10 10:34:04;;;;;;;6.68;3.58;;;18.70;99.90;;;;;;5067342;28;19991;-46
2022/06/10 10:36:33;;;;;;;7.53;4.15;;;18.70;99.90;;;;;;5088189;28;20401;-46
2022/06/10 10:39:31;;;;;;;11.77;4.40;;;18.80;99.90;;;;;;5077675;28;20129;-47
2022/06/10 10:42:02;;;;;;;10.32;4.50;;;18.90;99.90;;;;;;5082055;28;20390;-46
2022/06/10 10:44:44;;;;;;;10.07;4.28;;;18.90;99.90;;;;;;5069628;28;20037;-48
2022/06/10 10:47:10;;;;;;;10.20;4.18;;;19.10;99.90;;;;;;5071416;28;20044;-48
2022/06/10 10:49:43;;;;;;;10.10;4.63;;;19.20;99.90;;;;;;5090455;28;20516;-46
2022/06/10 10:52:17;;;;;;;15.77;4.47;;;19.30;99.90;;;;;;5074934;28;20393;-47
2022/06/10 10:54:47;;;;;;;9.48;3.92;;;19.40;99.90;;;;;;5087181;28;20032;-47
2022/06/10 10:57:29;;;;;;;15.10;3.03;;;19.50;99.90;;;;;;5084053;28;20040;-46
2022/06/10 11:00:10;;;;;;;9.02;2.72;;;19.60;99.90;;;;;;5070993;28;20059;-46
2022/06/10 11:03:03;;;;;;;11.45;2.40;;;19.60;99.90;;;;;;5078012;28;20048;-47
2022/06/10 11:05:35;;;;;;;10.55;3.28;;;19.60;99.90;;;;;;5087575;28;20093;-47
2022/06/10 11:08:37;;;;;;;8.80;2.30;;;19.60;99.90;;;;;;5069816;28;20046;-46
2022/06/10 11:11:03;;;;;;;9.68;1.77;;;19.70;99.90;;;;;;5077178;28;20119;-47
2022/06/10 11:13:35;;;;;;;9.40;2.75;;;19.80;99.90;;;;;;5069684;28;20124;-47
2022/06/10 11:16:26;;;;;;;9.80;2.50;;;19.90;99.90;;;;;;5079527;28;20561;-47
2022/06/10 11:19:11;;;;;;;9.45;2.15;;;20.10;99.90;;;;;;5083825;28;20040;-46
2022/06/10 11:21:47;;;;;;;16.42;3.30;;;20.20;99.90;;;;;;5082920;28;20040;-46
2022/06/10 11:24:17;;;;;;;11.52;2.25;;;20.20;99.90;;;;;;5074199;28;20068;-47
2022/06/10 11:26:50;;;;;;;10.57;1.83;;;20.20;99.90;;;;;;5078255;28;20504;-46
2022/06/10 11:29:16;;;;;;;6.72;2.90;;;20.20;99.90;;;;;;5071981;28;20036;-47
2022/06/10 11:31:47;;;;;;;8.23;2.72;;;20.20;99.90;;;;;;5071853;28;20081;-47
2022/06/10 11:34:22;;;;;;;4.85;1.67;;;20.10;99.90;;;;;;5078255;28;20277;-47
2022/06/10 11:36:52;;;;;;;7.32;2.50;;;20.10;99.90;;;;;;5080995;28;20382;-47
2022/06/10 11:39:25;;;;;;;8.50;2.10;;;20.20;99.90;;;;;;5070210;28;20068;-47
2022/06/10 11:42:17;;;;;;;7.63;1.80;;;20.30;99.90;;;;;;5070517;28;20313;-47
2022/06/10 11:45:06;;;;;;;7.93;2.40;;;20.40;99.90;;;;;;5078686;28;20051;-47
2022/06/10 11:47:45;;;;;;;7.57;1.73;;;20.50;99.90;;;;;;5092381;28;20052;-46
2022/06/10 11:50:29;;;;;;;8.07;1.55;;;20.70;99.90;;;;;;5092461;28;20109;-46
2022/06/10 11:53:38;;;;;;;6.55;1.63;;;20.80;99.90;;;;;;5075995;28;20059;-47
2022/06/10 12:01:47;;;;;;;7.23;1.53;;;20.90;99.90;;;;;;5072580;28;20049;-47
2022/06/10 12:04:23;;;;;;;6.90;1.73;;;20.80;99.90;;;;;;5072785;28;20336;-49
2022/06/10 12:06:54;;;;;;;11.95;1.90;;;20.70;99.90;;;;;;5081969;28;20124;-47
2022/06/10 12:09:43;;;;;;;9.48;1.73;;;20.60;99.90;;;;;;5089065;28;20039;-47
2022/06/10 12:12:19;;;;;;;5.47;1.35;;;20.50;99.90;;;;;;5092408;28;20040;-47
2022/06/10 12:14:48;;;;;;;11.10;1.67;;;20.40;99.90;;;;;;5092829;28;20397;-48
2022/06/10 12:17:35;;;;;;;9.20;1.35;;;20.40;99.90;;;;;;5083794;28;20111;-47
2022/06/10 12:20:16;;;;;;;9.07;1.73;;;20.40;99.90;;;;;;5089162;28;20480;-46
2022/06/10 12:22:42;;;;;;;5.63;1.48;;;20.30;99.90;;;;;;5092020;28;20075;-47
2022/06/10 12:25:31;;;;;;;;;;;20.30;99.90;;;;;;5084312;28;20052;-47
2022/06/10 12:28:12;;;;;;;5.85;1.50;;;20.30;99.90;;;;;;5061912;28;19966;-46
2022/06/10 12:30:44;;;;;;;9.43;1.30;;;20.30;99.90;;;;;;5072621;28;20509;-47
2022/06/10 12:33:23;;;;;;;5.57;1.88;;;20.40;99.90;;;;;;5069857;28;20114;-46
2022/06/10 12:35:52;;;;;;;6.88;1.40;;;20.40;99.90;;;;;;5083199;28;20481;-48
2022/06/10 12:38:33;;;;;;;5.20;1.27;;;20.50;99.90;;;;;;5093061;28;20150;-47
2022/06/10 12:41:10;;;;;;;7.10;1.73;;;20.50;99.90;;;;;;5092398;28;20124;-49
2022/06/10 12:44:02;;;;;;;;;;;20.50;99.90;;;;;;5091784;28;20044;-48
2022/06/10 12:46:40;;;;;;;4.53;1.60;;;20.50;99.90;;;;;;5078799;28;19963;-46
2022/06/10 12:49:48;;;;;;;11.15;1.98;;;20.60;99.90;;;;;;5072578;28;20090;-47
2022/06/10 12:52:49;;;;;;;8.23;1.25;;;20.50;99.90;;;;;;5021815;28;20159;-47
2022/06/10 12:55:31;;;;;;;7.97;1.67;;;20.50;99.90;;;;;;5029774;28;20080;-47
2022/06/10 12:57:57;;;;;;;5.32;0.80;;;20.40;99.90;;;;;;5029249;28;20045;-47
2022/06/10 13:00:22;;;;;;;6.38;1.40;;;20.40;99.90;;;;;;5029646;28;20040;-47
2022/06/10 13:02:51;;;;;;;;;;;20.40;99.90;;;;;;5029122;28;20053;-47
2022/06/10 13:05:41;;;;;;;6.40;1.20;;;20.40;99.90;;;;;;5031320;28;19917;-47
2022/06/10 13:08:34;;;;;;;7.47;1.70;;;20.50;99.90;;;;;;5040592;28;20049;-47
2022/06/10 13:11:02;;;;;;;8.75;1.60;;;20.60;99.90;;;;;;5049313;28;20084;-48
2022/06/10 13:13:28;;;;;;;8.35;1.00;;;20.60;99.90;;;;;;5047980;28;20045;-47
2022/06/10 13:16:32;;;;;;;8.80;1.33;;;20.70;99.90;;;;;;5049342;28;20041;-47
2022/06/10 13:18:59;;;;;;;9.15;2.05;;;20.70;99.90;;;;;;5031974;28;20534;-49
2022/06/10 13:21:31;;;;;;;6.30;1.33;;;20.80;99.90;;;;;;5039272;28;20506;-47
2022/06/10 13:23:59;;;;;;;7.97;1.33;;;20.80;99.90;;;;;;5028391;28;20146;-48
2022/06/10 13:26:26;;;;;;;3.47;1.10;;;20.80;99.90;;;;;;5035142;28;20120;-47
2022/06/10 13:29:02;;;;;;;9.35;1.58;;;20.80;99.90;;;;;;5085017;28;20044;-47
2022/06/10 13:31:28;;;;;;;11.52;1.70;;;20.70;99.90;;;;;;5074576;28;20098;-48
2022/06/10 13:33:59;;;;;;;;;;;20.70;99.90;;;;;;5071136;28;20036;-48
2022/06/10 13:36:30;;;;;;;8.38;1.23;;;20.70;99.90;;;;;;5071232;28;19916;-46
2022/06/10 13:38:58;;;;;;;12.82;1.80;;;20.70;99.90;;;;;;5078059;28;20523;-47
2022/06/10 13:41:52;;;;;;;12.95;2.00;;;20.80;99.90;;;;;;5071744;28;20044;-48